sensor_id;sensor_type;location;lat;lon;timestamp;P1;durP1;ratioP1;P2;durP2;ratioP2
48823;SDS011;34640;53.590;10.054;2024-03-02T00:01:00;28.83;;;14.27;;
48823;SDS011;34640;53.590;10.054;2024-03-02T00:03:36;31.38;;;14.02;;
48823;SDS011;34640;53.590;10.054;2024-03-02T00:06:10;28.83;;;14.02;;
48823;SDS011;34640;53.590;10.054;2024-03-02T00:08:45;30.92;;;14.38;;
48823;SDS011;34640;53.590;10.054;2024-03-02T00:11:18;32.60;;;15.45;;
48823;SDS011;34640;53.590;10.054;2024-03-02T00:13:52;31.75;;;14.57;;
48823;SDS011;34640;53.590;10.054;2024-03-02T00:16:29;28.38;;;14.75;;
48823;SDS011;34640;53.590;10.054;2024-03-02T00:19:05;31.83;;;15.07;;
48823;SDS011;34640;53.590;10.054;2024-03-02T00:21:39;34.70;;;15.23;;
48823;SDS011;34640;53.590;10.054;2024-03-02T00:24:20;30.52;;;15.15;;
48823;SDS011;34640;53.590;10.054;2024-03-02T00:26:59;36.42;;;15.90;;
48823;SDS011;34640;53.590;10.054;2024-03-02T00:29:32;39.05;;;16.50;;
48823;SDS011;34640;53.590;10.054;2024-03-02T00:32:08;41.70;;;17.80;;
48823;SDS011;34640;53.590;10.054;2024-03-02T00:34:46;40.38;;;16.88;;
48823;SDS011;34640;53.590;10.054;2024-03-02T00:37:19;39.85;;;18.15;;
48823;SDS011;34640;53.590;10.054;2024-03-02T00:39:54;38.10;;;16.85;;
48823;SDS011;34640;53.590;10.054;2024-03-02T00:42:28;40.53;;;18.30;;
48823;SDS011;34640;53.590;10.054;2024-03-02T00:45:01;45.55;;;20.40;;
48823;SDS011;34640;53.590;10.054;2024-03-02T00:47:40;49.50;;;22.35;;
48823;SDS011;34640;53.590;10.054;2024-03-02T00:50:15;44.08;;;20.00;;
48823;SDS011;34640;53.590;10.054;2024-03-02T00:53:01;42.53;;;19.17;;
48823;SDS011;34640;53.590;10.054;2024-03-02T00:55:37;43.22;;;19.77;;
48823;SDS011;34640;53.590;10.054;2024-03-02T00:58:15;44.50;;;19.85;;
48823;SDS011;34640;53.590;10.054;2024-03-02T01:00:48;45.95;;;19.95;;
48823;SDS011;34640;53.590;10.054;2024-03-02T01:03:22;46.75;;;20.70;;
48823;SDS011;34640;53.590;10.054;2024-03-02T01:05:55;44.63;;;20.83;;
48823;SDS011;34640;53.590;10.054;2024-03-02T01:08:28;49.08;;;21.02;;
48823;SDS011;34640;53.590;10.054;2024-03-02T01:11:03;42.03;;;20.33;;
48823;SDS011;34640;53.590;10.054;2024-03-02T01:13:37;52.20;;;22.42;;
48823;SDS011;34640;53.590;10.054;2024-03-02T01:16:18;54.50;;;24.50;;
48823;SDS011;34640;53.590;10.054;2024-03-02T01:18:51;48.53;;;19.98;;
48823;SDS011;34640;53.590;10.054;2024-03-02T01:21:25;51.20;;;21.38;;
48823;SDS011;34640;53.590;10.054;2024-03-02T01:23:58;41.50;;;19.63;;
48823;SDS011;34640;53.590;10.054;2024-03-02T01:26:33;51.22;;;21.90;;
48823;SDS011;34640;53.590;10.054;2024-03-02T01:29:07;44.08;;;21.08;;
48823;SDS011;34640;53.590;10.054;2024-03-02T01:31:39;46.53;;;20.73;;
48823;SDS011;34640;53.590;10.054;2024-03-02T01:34:13;52.53;;;21.58;;
48823;SDS011;34640;53.590;10.054;2024-03-02T01:36:46;50.50;;;21.70;;
48823;SDS011;34640;53.590;10.054;2024-03-02T01:39:22;55.33;;;25.42;;
48823;SDS011;34640;53.590;10.054;2024-03-02T01:41:57;54.33;;;25.20;;
48823;SDS011;34640;53.590;10.054;2024-03-02T01:44:30;45.33;;;21.23;;
48823;SDS011;34640;53.590;10.054;2024-03-02T01:47:05;48.00;;;20.73;;
48823;SDS011;34640;53.590;10.054;2024-03-02T01:49:39;45.55;;;21.63;;
48823;SDS011;34640;53.590;10.054;2024-03-02T01:52:13;50.95;;;21.88;;
48823;SDS011;34640;53.590;10.054;2024-03-02T01:54:48;44.97;;;21.10;;
48823;SDS011;34640;53.590;10.054;2024-03-02T01:57:23;49.53;;;21.20;;
48823;SDS011;34640;53.590;10.054;2024-03-02T01:59:57;49.60;;;21.40;;
48823;SDS011;34640;53.590;10.054;2024-03-02T02:02:31;50.97;;;21.70;;
48823;SDS011;34640;53.590;10.054;2024-03-02T02:05:05;49.10;;;22.58;;
48823;SDS011;34640;53.590;10.054;2024-03-02T02:07:38;45.63;;;21.98;;
48823;SDS011;34640;53.590;10.054;2024-03-02T02:10:13;46.67;;;22.08;;
48823;SDS011;34640;53.590;10.054;2024-03-02T02:12:47;50.90;;;23.52;;
48823;SDS011;34640;53.590;10.054;2024-03-02T02:15:21;48.58;;;21.85;;
48823;SDS011;34640;53.590;10.054;2024-03-02T02:17:56;46.42;;;22.42;;
48823;SDS011;34640;53.590;10.054;2024-03-02T02:20:32;48.08;;;22.55;;
48823;SDS011;34640;53.590;10.054;2024-03-02T02:23:07;48.97;;;22.88;;
48823;SDS011;34640;53.590;10.054;2024-03-02T02:25:42;51.85;;;23.27;;
48823;SDS011;34640;53.590;10.054;2024-03-02T02:28:16;49.47;;;22.00;;
48823;SDS011;34640;53.590;10.054;2024-03-02T02:30:51;48.08;;;22.73;;
48823;SDS011;34640;53.590;10.054;2024-03-02T02:33:24;46.00;;;21.15;;
48823;SDS011;34640;53.590;10.054;2024-03-02T02:36:00;54.92;;;23.73;;
48823;SDS011;34640;53.590;10.054;2024-03-02T02:38:36;51.53;;;21.98;;
48823;SDS011;34640;53.590;10.054;2024-03-02T02:41:17;49.40;;;23.15;;
48823;SDS011;34640;53.590;10.054;2024-03-02T02:43:50;54.20;;;23.40;;
48823;SDS011;34640;53.590;10.054;2024-03-02T02:46:23;46.70;;;22.00;;
48823;SDS011;34640;53.590;10.054;2024-03-02T02:48:56;51.72;;;21.65;;
48823;SDS011;34640;53.590;10.054;2024-03-02T02:51:31;51.90;;;22.60;;
48823;SDS011;34640;53.590;10.054;2024-03-02T02:54:06;53.67;;;22.63;;
48823;SDS011;34640;53.590;10.054;2024-03-02T02:56:39;48.50;;;21.90;;
48823;SDS011;34640;53.590;10.054;2024-03-02T02:59:12;54.17;;;22.08;;
48823;SDS011;34640;53.590;10.054;2024-03-02T03:01:45;46.55;;;21.48;;
48823;SDS011;34640;53.590;10.054;2024-03-02T03:04:19;45.22;;;21.20;;
48823;SDS011;34640;53.590;10.054;2024-03-02T03:07:11;53.20;;;23.17;;
48823;SDS011;34640;53.590;10.054;2024-03-02T03:09:46;45.90;;;20.75;;
48823;SDS011;34640;53.590;10.054;2024-03-02T03:12:21;48.15;;;21.08;;
48823;SDS011;34640;53.590;10.054;2024-03-02T03:14:54;53.40;;;22.63;;
48823;SDS011;34640;53.590;10.054;2024-03-02T03:17:28;48.13;;;21.25;;
48823;SDS011;34640;53.590;10.054;2024-03-02T03:20:02;44.80;;;21.05;;
48823;SDS011;34640;53.590;10.054;2024-03-02T03:22:37;46.78;;;21.25;;
48823;SDS011;34640;53.590;10.054;2024-03-02T03:25:14;42.45;;;20.70;;
48823;SDS011;34640;53.590;10.054;2024-03-02T03:27:47;49.42;;;21.70;;
48823;SDS011;34640;53.590;10.054;2024-03-02T03:30:21;42.67;;;19.05;;
48823;SDS011;34640;53.590;10.054;2024-03-02T03:32:54;46.85;;;21.15;;
48823;SDS011;34640;53.590;10.054;2024-03-02T03:35:27;46.88;;;21.58;;
48823;SDS011;34640;53.590;10.054;2024-03-02T03:38:00;49.17;;;22.25;;
48823;SDS011;34640;53.590;10.054;2024-03-02T03:40:35;44.45;;;20.45;;
48823;SDS011;34640;53.590;10.054;2024-03-02T03:43:08;46.20;;;20.30;;
48823;SDS011;34640;53.590;10.054;2024-03-02T03:45:41;47.10;;;22.88;;
48823;SDS011;34640;53.590;10.054;2024-03-02T03:48:16;45.10;;;21.13;;
48823;SDS011;34640;53.590;10.054;2024-03-02T03:50:49;45.95;;;20.80;;
48823;SDS011;34640;53.590;10.054;2024-03-02T03:53:22;44.17;;;21.20;;
48823;SDS011;34640;53.590;10.054;2024-03-02T03:55:57;40.75;;;20.50;;
48823;SDS011;34640;53.590;10.054;2024-03-02T03:58:32;45.95;;;20.67;;
48823;SDS011;34640;53.590;10.054;2024-03-02T04:01:06;43.72;;;21.27;;
48823;SDS011;34640;53.590;10.054;2024-03-02T04:03:40;43.90;;;20.08;;
48823;SDS011;34640;53.590;10.054;2024-03-02T04:06:14;44.28;;;20.90;;
48823;SDS011;34640;53.590;10.054;2024-03-02T04:08:50;42.35;;;19.80;;
48823;SDS011;34640;53.590;10.054;2024-03-02T04:11:26;44.65;;;19.45;;
48823;SDS011;34640;53.590;10.054;2024-03-02T04:13:59;40.10;;;19.27;;
48823;SDS011;34640;53.590;10.054;2024-03-02T04:16:32;45.05;;;20.08;;
48823;SDS011;34640;53.590;10.054;2024-03-02T04:19:05;43.03;;;20.02;;
48823;SDS011;34640;53.590;10.054;2024-03-02T04:21:39;44.67;;;19.77;;
48823;SDS011;34640;53.590;10.054;2024-03-02T04:24:12;44.13;;;19.98;;
48823;SDS011;34640;53.590;10.054;2024-03-02T04:26:49;45.13;;;19.58;;
48823;SDS011;34640;53.590;10.054;2024-03-02T04:29:24;37.08;;;17.85;;
48823;SDS011;34640;53.590;10.054;2024-03-02T04:31:57;39.13;;;18.05;;
48823;SDS011;34640;53.590;10.054;2024-03-02T04:34:30;42.50;;;19.05;;
48823;SDS011;34640;53.590;10.054;2024-03-02T04:37:04;45.92;;;19.13;;
48823;SDS011;34640;53.590;10.054;2024-03-02T04:39:40;38.50;;;18.45;;
48823;SDS011;34640;53.590;10.054;2024-03-02T04:42:17;39.90;;;18.92;;
48823;SDS011;34640;53.590;10.054;2024-03-02T04:44:51;40.45;;;18.77;;
48823;SDS011;34640;53.590;10.054;2024-03-02T04:47:23;36.08;;;18.05;;
48823;SDS011;34640;53.590;10.054;2024-03-02T04:49:56;34.38;;;16.75;;
48823;SDS011;34640;53.590;10.054;2024-03-02T04:52:30;38.00;;;18.33;;
48823;SDS011;34640;53.590;10.054;2024-03-02T04:55:04;39.08;;;18.10;;
48823;SDS011;34640;53.590;10.054;2024-03-02T04:58:02;36.28;;;18.95;;
48823;SDS011;34640;53.590;10.054;2024-03-02T05:00:36;43.10;;;18.73;;
48823;SDS011;34640;53.590;10.054;2024-03-02T05:03:09;37.15;;;18.00;;
48823;SDS011;34640;53.590;10.054;2024-03-02T05:05:42;34.97;;;17.92;;
48823;SDS011;34640;53.590;10.054;2024-03-02T05:08:16;38.45;;;18.80;;
48823;SDS011;34640;53.590;10.054;2024-03-02T05:10:49;36.22;;;17.50;;
48823;SDS011;34640;53.590;10.054;2024-03-02T05:13:24;40.63;;;18.48;;
48823;SDS011;34640;53.590;10.054;2024-03-02T05:15:57;34.03;;;17.23;;
48823;SDS011;34640;53.590;10.054;2024-03-02T05:18:31;36.67;;;18.10;;
48823;SDS011;34640;53.590;10.054;2024-03-02T05:21:04;44.78;;;18.65;;
48823;SDS011;34640;53.590;10.054;2024-03-02T05:23:37;39.00;;;19.05;;
48823;SDS011;34640;53.590;10.054;2024-03-02T05:26:11;35.83;;;17.52;;
48823;SDS011;34640;53.590;10.054;2024-03-02T05:28:46;35.17;;;18.40;;
48823;SDS011;34640;53.590;10.054;2024-03-02T05:31:19;41.83;;;18.60;;
48823;SDS011;34640;53.590;10.054;2024-03-02T05:33:53;37.03;;;17.40;;
48823;SDS011;34640;53.590;10.054;2024-03-02T05:36:29;38.45;;;18.10;;
48823;SDS011;34640;53.590;10.054;2024-03-02T05:39:02;38.60;;;17.95;;
48823;SDS011;34640;53.590;10.054;2024-03-02T05:41:36;41.20;;;18.38;;
48823;SDS011;34640;53.590;10.054;2024-03-02T05:44:11;39.85;;;18.17;;
48823;SDS011;34640;53.590;10.054;2024-03-02T05:46:46;42.13;;;18.73;;
48823;SDS011;34640;53.590;10.054;2024-03-02T05:49:20;39.83;;;18.65;;
48823;SDS011;34640;53.590;10.054;2024-03-02T05:51:53;45.42;;;18.50;;
48823;SDS011;34640;53.590;10.054;2024-03-02T05:54:30;41.40;;;18.92;;
48823;SDS011;34640;53.590;10.054;2024-03-02T05:57:03;34.75;;;17.95;;
48823;SDS011;34640;53.590;10.054;2024-03-02T05:59:59;36.20;;;17.20;;
48823;SDS011;34640;53.590;10.054;2024-03-02T06:02:32;37.53;;;17.02;;
48823;SDS011;34640;53.590;10.054;2024-03-02T06:05:10;38.63;;;17.02;;
48823;SDS011;34640;53.590;10.054;2024-03-02T06:07:43;31.67;;;16.40;;
48823;SDS011;34640;53.590;10.054;2024-03-02T06:10:16;36.92;;;17.73;;
48823;SDS011;34640;53.590;10.054;2024-03-02T06:12:50;40.45;;;18.80;;
48823;SDS011;34640;53.590;10.054;2024-03-02T06:15:24;34.03;;;17.08;;
48823;SDS011;34640;53.590;10.054;2024-03-02T06:17:57;35.13;;;16.98;;
48823;SDS011;34640;53.590;10.054;2024-03-02T06:20:30;32.83;;;16.00;;
48823;SDS011;34640;53.590;10.054;2024-03-02T06:23:07;35.55;;;16.88;;
48823;SDS011;34640;53.590;10.054;2024-03-02T06:25:40;31.98;;;15.80;;
48823;SDS011;34640;53.590;10.054;2024-03-02T06:28:13;33.17;;;16.80;;
48823;SDS011;34640;53.590;10.054;2024-03-02T06:30:48;37.10;;;16.95;;
48823;SDS011;34640;53.590;10.054;2024-03-02T06:33:21;32.20;;;16.50;;
48823;SDS011;34640;53.590;10.054;2024-03-02T06:35:54;38.30;;;17.10;;
48823;SDS011;34640;53.590;10.054;2024-03-02T06:38:27;33.72;;;17.30;;
48823;SDS011;34640;53.590;10.054;2024-03-02T06:41:00;34.25;;;16.73;;
48823;SDS011;34640;53.590;10.054;2024-03-02T06:43:34;36.92;;;17.52;;
48823;SDS011;34640;53.590;10.054;2024-03-02T06:46:08;39.08;;;16.13;;
48823;SDS011;34640;53.590;10.054;2024-03-02T06:48:46;36.92;;;16.88;;
48823;SDS011;34640;53.590;10.054;2024-03-02T06:51:19;36.20;;;17.35;;
48823;SDS011;34640;53.590;10.054;2024-03-02T06:53:52;32.25;;;15.90;;
48823;SDS011;34640;53.590;10.054;2024-03-02T06:56:25;34.40;;;17.10;;
48823;SDS011;34640;53.590;10.054;2024-03-02T06:58:58;39.60;;;16.85;;
48823;SDS011;34640;53.590;10.054;2024-03-02T07:01:32;32.90;;;16.17;;
48823;SDS011;34640;53.590;10.054;2024-03-02T07:04:06;33.65;;;16.20;;
48823;SDS011;34640;53.590;10.054;2024-03-02T07:06:39;35.35;;;16.70;;
48823;SDS011;34640;53.590;10.054;2024-03-02T07:09:12;38.28;;;17.83;;
48823;SDS011;34640;53.590;10.054;2024-03-02T07:11:45;36.15;;;16.70;;
48823;SDS011;34640;53.590;10.054;2024-03-02T07:14:22;33.55;;;16.52;;
48823;SDS011;34640;53.590;10.054;2024-03-02T07:17:17;33.78;;;16.10;;
48823;SDS011;34640;53.590;10.054;2024-03-02T07:19:50;36.17;;;15.68;;
48823;SDS011;34640;53.590;10.054;2024-03-02T07:22:23;32.15;;;15.52;;
48823;SDS011;34640;53.590;10.054;2024-03-02T07:24:57;32.75;;;15.68;;
48823;SDS011;34640;53.590;10.054;2024-03-02T07:27:30;33.78;;;15.80;;
48823;SDS011;34640;53.590;10.054;2024-03-02T07:30:05;36.40;;;16.05;;
48823;SDS011;34640;53.590;10.054;2024-03-02T07:32:40;31.23;;;14.98;;
48823;SDS011;34640;53.590;10.054;2024-03-02T07:35:17;31.10;;;16.75;;
48823;SDS011;34640;53.590;10.054;2024-03-02T07:37:50;32.38;;;15.63;;
48823;SDS011;34640;53.590;10.054;2024-03-02T07:40:23;31.33;;;16.08;;
48823;SDS011;34640;53.590;10.054;2024-03-02T07:42:56;32.10;;;17.10;;
48823;SDS011;34640;53.590;10.054;2024-03-02T07:45:30;32.95;;;16.00;;
48823;SDS011;34640;53.590;10.054;2024-03-02T07:48:04;35.97;;;16.75;;
48823;SDS011;34640;53.590;10.054;2024-03-02T07:50:38;33.38;;;16.30;;
48823;SDS011;34640;53.590;10.054;2024-03-02T07:53:11;36.17;;;16.60;;
48823;SDS011;34640;53.590;10.054;2024-03-02T07:55:45;37.60;;;16.98;;
48823;SDS011;34640;53.590;10.054;2024-03-02T07:58:18;37.80;;;17.88;;
48823;SDS011;34640;53.590;10.054;2024-03-02T08:00:52;40.97;;;18.58;;
48823;SDS011;34640;53.590;10.054;2024-03-02T08:03:27;34.58;;;17.02;;
48823;SDS011;34640;53.590;10.054;2024-03-02T08:06:00;33.17;;;16.67;;
48823;SDS011;34640;53.590;10.054;2024-03-02T08:08:34;33.92;;;16.80;;
48823;SDS011;34640;53.590;10.054;2024-03-02T08:11:07;37.03;;;17.33;;
48823;SDS011;34640;53.590;10.054;2024-03-02T08:13:40;34.30;;;16.75;;
48823;SDS011;34640;53.590;10.054;2024-03-02T08:16:13;42.33;;;17.83;;
48823;SDS011;34640;53.590;10.054;2024-03-02T08:18:48;39.03;;;18.10;;
48823;SDS011;34640;53.590;10.054;2024-03-02T08:21:22;39.35;;;17.65;;
48823;SDS011;34640;53.590;10.054;2024-03-02T08:23:55;37.05;;;17.65;;
48823;SDS011;34640;53.590;10.054;2024-03-02T08:26:28;38.85;;;17.75;;
48823;SDS011;34640;53.590;10.054;2024-03-02T08:29:03;37.20;;;19.13;;
48823;SDS011;34640;53.590;10.054;2024-03-02T08:31:36;40.38;;;17.08;;
48823;SDS011;34640;53.590;10.054;2024-03-02T08:34:13;39.58;;;17.77;;
48823;SDS011;34640;53.590;10.054;2024-03-02T08:36:46;40.10;;;19.45;;
48823;SDS011;34640;53.590;10.054;2024-03-02T08:39:19;35.85;;;18.23;;
48823;SDS011;34640;53.590;10.054;2024-03-02T08:41:52;41.40;;;18.50;;
48823;SDS011;34640;53.590;10.054;2024-03-02T08:44:26;38.90;;;18.00;;
48823;SDS011;34640;53.590;10.054;2024-03-02T08:46:59;42.85;;;19.23;;
48823;SDS011;34640;53.590;10.054;2024-03-02T08:49:33;40.13;;;18.92;;
48823;SDS011;34640;53.590;10.054;2024-03-02T08:52:06;45.38;;;18.50;;
48823;SDS011;34640;53.590;10.054;2024-03-02T08:54:40;37.03;;;17.95;;
48823;SDS011;34640;53.590;10.054;2024-03-02T08:57:13;38.53;;;18.75;;
48823;SDS011;34640;53.590;10.054;2024-03-02T08:59:46;33.45;;;16.95;;
48823;SDS011;34640;53.590;10.054;2024-03-02T09:02:19;36.80;;;18.95;;
48823;SDS011;34640;53.590;10.054;2024-03-02T09:04:53;35.30;;;17.83;;
48823;SDS011;34640;53.590;10.054;2024-03-02T09:07:26;36.58;;;17.88;;
48823;SDS011;34640;53.590;10.054;2024-03-02T09:09:59;36.90;;;18.15;;
48823;SDS011;34640;53.590;10.054;2024-03-02T09:12:33;40.58;;;18.35;;
48823;SDS011;34640;53.590;10.054;2024-03-02T09:15:07;38.63;;;17.10;;
48823;SDS011;34640;53.590;10.054;2024-03-02T09:17:40;41.63;;;18.52;;
48823;SDS011;34640;53.590;10.054;2024-03-02T09:20:14;34.65;;;17.17;;
48823;SDS011;34640;53.590;10.054;2024-03-02T09:22:48;35.05;;;16.92;;
48823;SDS011;34640;53.590;10.054;2024-03-02T09:25:21;32.83;;;17.15;;
48823;SDS011;34640;53.590;10.054;2024-03-02T09:27:54;36.15;;;17.40;;
48823;SDS011;34640;53.590;10.054;2024-03-02T09:30:28;36.60;;;17.40;;
48823;SDS011;34640;53.590;10.054;2024-03-02T09:33:01;39.35;;;17.90;;
48823;SDS011;34640;53.590;10.054;2024-03-02T09:35:38;33.45;;;16.02;;
48823;SDS011;34640;53.590;10.054;2024-03-02T09:38:11;35.30;;;17.30;;
48823;SDS011;34640;53.590;10.054;2024-03-02T09:40:46;34.47;;;16.77;;
48823;SDS011;34640;53.590;10.054;2024-03-02T09:43:19;32.65;;;15.65;;
48823;SDS011;34640;53.590;10.054;2024-03-02T09:45:52;34.33;;;16.90;;
48823;SDS011;34640;53.590;10.054;2024-03-02T09:48:26;29.95;;;15.80;;
48823;SDS011;34640;53.590;10.054;2024-03-02T09:51:01;33.25;;;16.60;;
48823;SDS011;34640;53.590;10.054;2024-03-02T09:53:35;33.05;;;16.00;;
48823;SDS011;34640;53.590;10.054;2024-03-02T09:56:08;36.08;;;16.58;;
48823;SDS011;34640;53.590;10.054;2024-03-02T09:58:42;33.20;;;15.05;;
48823;SDS011;34640;53.590;10.054;2024-03-02T10:01:16;35.88;;;15.85;;
48823;SDS011;34640;53.590;10.054;2024-03-02T10:03:49;31.08;;;15.63;;
48823;SDS011;34640;53.590;10.054;2024-03-02T10:06:25;33.13;;;15.38;;
48823;SDS011;34640;53.590;10.054;2024-03-02T10:08:59;31.92;;;15.55;;
48823;SDS011;34640;53.590;10.054;2024-03-02T10:11:34;28.58;;;14.15;;
48823;SDS011;34640;53.590;10.054;2024-03-02T10:14:09;28.30;;;14.68;;
48823;SDS011;34640;53.590;10.054;2024-03-02T10:16:44;27.17;;;14.48;;
48823;SDS011;34640;53.590;10.054;2024-03-02T10:19:18;26.67;;;14.45;;
48823;SDS011;34640;53.590;10.054;2024-03-02T10:21:54;29.50;;;14.85;;
48823;SDS011;34640;53.590;10.054;2024-03-02T10:24:35;28.17;;;13.00;;
48823;SDS011;34640;53.590;10.054;2024-03-02T10:27:19;28.08;;;13.43;;
48823;SDS011;34640;53.590;10.054;2024-03-02T10:29:56;27.52;;;12.52;;
48823;SDS011;34640;53.590;10.054;2024-03-02T10:32:29;26.90;;;12.52;;
48823;SDS011;34640;53.590;10.054;2024-03-02T10:35:02;23.88;;;12.07;;
48823;SDS011;34640;53.590;10.054;2024-03-02T10:37:37;24.20;;;12.93;;
48823;SDS011;34640;53.590;10.054;2024-03-02T10:40:11;24.10;;;12.63;;
48823;SDS011;34640;53.590;10.054;2024-03-02T10:42:45;24.67;;;12.93;;
48823;SDS011;34640;53.590;10.054;2024-03-02T10:45:19;23.15;;;11.95;;
48823;SDS011;34640;53.590;10.054;2024-03-02T10:47:53;25.85;;;12.73;;
48823;SDS011;34640;53.590;10.054;2024-03-02T10:50:27;25.10;;;11.57;;
48823;SDS011;34640;53.590;10.054;2024-03-02T10:53:01;22.77;;;11.18;;
48823;SDS011;34640;53.590;10.054;2024-03-02T10:55:37;24.67;;;12.55;;
48823;SDS011;34640;53.590;10.054;2024-03-02T10:58:10;21.20;;;11.13;;
48823;SDS011;34640;53.590;10.054;2024-03-02T11:00:45;23.40;;;11.55;;
48823;SDS011;34640;53.590;10.054;2024-03-02T11:03:18;21.70;;;10.82;;
48823;SDS011;34640;53.590;10.054;2024-03-02T11:05:52;24.13;;;11.25;;
48823;SDS011;34640;53.590;10.054;2024-03-02T11:08:26;21.10;;;10.10;;
48823;SDS011;34640;53.590;10.054;2024-03-02T11:11:02;19.08;;;10.25;;
48823;SDS011;34640;53.590;10.054;2024-03-02T11:13:40;17.70;;;9.60;;
48823;SDS011;34640;53.590;10.054;2024-03-02T11:16:20;16.15;;;8.40;;
48823;SDS011;34640;53.590;10.054;2024-03-02T11:19:06;19.35;;;8.23;;
48823;SDS011;34640;53.590;10.054;2024-03-02T11:21:44;15.95;;;8.95;;
48823;SDS011;34640;53.590;10.054;2024-03-02T11:24:30;15.10;;;7.90;;
48823;SDS011;34640;53.590;10.054;2024-03-02T11:27:09;15.43;;;7.50;;
48823;SDS011;34640;53.590;10.054;2024-03-02T11:29:44;15.18;;;8.27;;
48823;SDS011;34640;53.590;10.054;2024-03-02T11:32:19;15.70;;;7.00;;
48823;SDS011;34640;53.590;10.054;2024-03-02T11:34:55;15.60;;;7.38;;
48823;SDS011;34640;53.590;10.054;2024-03-02T11:37:28;14.85;;;7.18;;
48823;SDS011;34640;53.590;10.054;2024-03-02T11:40:04;16.77;;;7.65;;
48823;SDS011;34640;53.590;10.054;2024-03-02T11:42:38;12.68;;;7.20;;
48823;SDS011;34640;53.590;10.054;2024-03-02T11:45:11;12.45;;;6.85;;
48823;SDS011;34640;53.590;10.054;2024-03-02T11:47:46;12.63;;;6.70;;
48823;SDS011;34640;53.590;10.054;2024-03-02T11:50:28;13.68;;;7.18;;
48823;SDS011;34640;53.590;10.054;2024-03-02T11:53:02;14.63;;;6.55;;
48823;SDS011;34640;53.590;10.054;2024-03-02T11:55:41;12.35;;;6.38;;
48823;SDS011;34640;53.590;10.054;2024-03-02T11:58:18;20.73;;;8.73;;
48823;SDS011;34640;53.590;10.054;2024-03-02T12:00:52;17.67;;;6.78;;
48823;SDS011;34640;53.590;10.054;2024-03-02T12:03:26;13.43;;;7.10;;
48823;SDS011;34640;53.590;10.054;2024-03-02T12:06:00;11.40;;;6.60;;
48823;SDS011;34640;53.590;10.054;2024-03-02T12:08:33;13.15;;;7.18;;
48823;SDS011;34640;53.590;10.054;2024-03-02T12:11:08;13.77;;;7.07;;
48823;SDS011;34640;53.590;10.054;2024-03-02T12:13:53;16.50;;;8.25;;
48823;SDS011;34640;53.590;10.054;2024-03-02T12:16:27;14.38;;;7.85;;
48823;SDS011;34640;53.590;10.054;2024-03-02T12:19:00;13.88;;;6.50;;
48823;SDS011;34640;53.590;10.054;2024-03-02T12:21:33;11.95;;;7.30;;
48823;SDS011;34640;53.590;10.054;2024-03-02T12:24:06;18.52;;;8.48;;
48823;SDS011;34640;53.590;10.054;2024-03-02T12:26:43;12.52;;;7.18;;
48823;SDS011;34640;53.590;10.054;2024-03-02T12:29:18;15.20;;;7.35;;
48823;SDS011;34640;53.590;10.054;2024-03-02T12:31:52;14.38;;;7.78;;
48823;SDS011;34640;53.590;10.054;2024-03-02T12:34:25;19.63;;;8.95;;
48823;SDS011;34640;53.590;10.054;2024-03-02T12:36:59;16.65;;;8.32;;
48823;SDS011;34640;53.590;10.054;2024-03-02T12:39:32;15.35;;;7.93;;
48823;SDS011;34640;53.590;10.054;2024-03-02T12:42:06;15.57;;;7.95;;
48823;SDS011;34640;53.590;10.054;2024-03-02T12:44:39;17.27;;;8.68;;
48823;SDS011;34640;53.590;10.054;2024-03-02T12:47:12;16.67;;;8.07;;
48823;SDS011;34640;53.590;10.054;2024-03-02T12:49:48;20.20;;;8.52;;
48823;SDS011;34640;53.590;10.054;2024-03-02T12:52:24;16.73;;;8.30;;
48823;SDS011;34640;53.590;10.054;2024-03-02T12:54:57;15.32;;;8.23;;
48823;SDS011;34640;53.590;10.054;2024-03-02T12:57:32;17.80;;;8.65;;
48823;SDS011;34640;53.590;10.054;2024-03-02T13:00:06;15.82;;;8.55;;
48823;SDS011;34640;53.590;10.054;2024-03-02T13:02:40;19.98;;;9.07;;
48823;SDS011;34640;53.590;10.054;2024-03-02T13:05:14;16.67;;;8.57;;
48823;SDS011;34640;53.590;10.054;2024-03-02T13:07:47;15.65;;;8.30;;
48823;SDS011;34640;53.590;10.054;2024-03-02T13:10:20;18.50;;;8.48;;
48823;SDS011;34640;53.590;10.054;2024-03-02T13:12:56;16.05;;;8.70;;
48823;SDS011;34640;53.590;10.054;2024-03-02T13:15:29;15.73;;;8.57;;
48823;SDS011;34640;53.590;10.054;2024-03-02T13:18:07;17.33;;;8.38;;
48823;SDS011;34640;53.590;10.054;2024-03-02T13:20:40;17.05;;;8.98;;
48823;SDS011;34640;53.590;10.054;2024-03-02T13:23:13;17.13;;;8.75;;
48823;SDS011;34640;53.590;10.054;2024-03-02T13:25:46;13.98;;;8.40;;
48823;SDS011;34640;53.590;10.054;2024-03-02T13:28:21;24.30;;;11.38;;
48823;SDS011;34640;53.590;10.054;2024-03-02T13:30:54;18.70;;;7.85;;
48823;SDS011;34640;53.590;10.054;2024-03-02T13:33:27;15.43;;;8.55;;
48823;SDS011;34640;53.590;10.054;2024-03-02T13:36:02;19.33;;;8.90;;
48823;SDS011;34640;53.590;10.054;2024-03-02T13:38:35;15.93;;;8.70;;
48823;SDS011;34640;53.590;10.054;2024-03-02T13:41:09;17.98;;;9.05;;
48823;SDS011;34640;53.590;10.054;2024-03-02T13:43:44;16.50;;;8.45;;
48823;SDS011;34640;53.590;10.054;2024-03-02T13:46:17;17.08;;;8.65;;
48823;SDS011;34640;53.590;10.054;2024-03-02T13:48:50;18.17;;;8.68;;
48823;SDS011;34640;53.590;10.054;2024-03-02T13:51:24;17.65;;;9.00;;
48823;SDS011;34640;53.590;10.054;2024-03-02T13:53:59;16.95;;;8.48;;
48823;SDS011;34640;53.590;10.054;2024-03-02T13:56:34;17.50;;;8.88;;
48823;SDS011;34640;53.590;10.054;2024-03-02T13:59:08;18.15;;;8.75;;
48823;SDS011;34640;53.590;10.054;2024-03-02T14:01:41;19.15;;;9.13;;
48823;SDS011;34640;53.590;10.054;2024-03-02T14:04:15;18.17;;;8.38;;
48823;SDS011;34640;53.590;10.054;2024-03-02T14:06:48;15.52;;;8.40;;
48823;SDS011;34640;53.590;10.054;2024-03-02T14:09:22;16.35;;;8.73;;
48823;SDS011;34640;53.590;10.054;2024-03-02T14:11:58;13.43;;;8.23;;
48823;SDS011;34640;53.590;10.054;2024-03-02T14:14:33;21.58;;;8.77;;
48823;SDS011;34640;53.590;10.054;2024-03-02T14:17:06;18.95;;;9.07;;
48823;SDS011;34640;53.590;10.054;2024-03-02T14:19:43;19.70;;;9.05;;
48823;SDS011;34640;53.590;10.054;2024-03-02T14:22:16;21.60;;;9.50;;
48823;SDS011;34640;53.590;10.054;2024-03-02T14:24:49;16.83;;;8.93;;
48823;SDS011;34640;53.590;10.054;2024-03-02T14:27:22;19.33;;;9.13;;
48823;SDS011;34640;53.590;10.054;2024-03-02T14:30:16;18.65;;;9.05;;
48823;SDS011;34640;53.590;10.054;2024-03-02T14:32:49;16.15;;;9.02;;
48823;SDS011;34640;53.590;10.054;2024-03-02T14:35:23;20.67;;;8.70;;
48823;SDS011;34640;53.590;10.054;2024-03-02T14:37:56;14.15;;;8.05;;
48823;SDS011;34640;53.590;10.054;2024-03-02T14:40:29;16.33;;;8.57;;
48823;SDS011;34640;53.590;10.054;2024-03-02T14:43:02;17.13;;;7.90;;
48823;SDS011;34640;53.590;10.054;2024-03-02T14:45:37;12.95;;;6.72;;
48823;SDS011;34640;53.590;10.054;2024-03-02T14:48:10;13.32;;;7.07;;
48823;SDS011;34640;53.590;10.054;2024-03-02T14:50:43;12.63;;;7.05;;
48823;SDS011;34640;53.590;10.054;2024-03-02T14:53:16;15.65;;;7.07;;